Terminal Aerodrome Forecast
Issued by NWS

Home | Current Version | Previous Version | Text Only | Print | Product List | Glossary On
Versions: 1 2 3 4 5 6 7 8 9 10 11 12 13 14 15 16 17 18 19 20 21 22 23 24 25 26 27 28
000
FTUS46 KLOX 281100
TAFSBP
TAF
KSBP 281124Z 2812/2912 31006KT P6SM SCT150
     FM282000 29010KT P6SM BKN150
     FM290400 VRB03KT P6SM SCT150
     FM290900 VRB03KT 4SM BR OVC004=

USA.gov is the U.S. government's official web portal to all federal, state and local government web resources and services.